createdAt,value
2022-08-14T00:00:00.000Z,62.66
2022-08-14T00:15:00.000Z,62.27
2022-08-14T00:30:00.000Z,62.92
2022-08-14T00:45:00.000Z,63.95
2022-08-14T01:00:00.000Z,64.52
2022-08-14T01:15:00.000Z,64.54
2022-08-14T01:30:00.000Z,64.73
2022-08-14T01:45:00.000Z,65.12
2022-08-14T02:00:00.000Z,65.53
2022-08-14T02:15:00.000Z,65.62
2022-08-14T02:30:00.000Z,65.59
2022-08-14T02:45:00.000Z,66.04
2022-08-14T03:00:00.000Z,66.21
2022-08-14T03:15:00.000Z,66.87
2022-08-14T03:30:00.000Z,67.47
2022-08-14T03:45:00.000Z,67.5
2022-08-14T04:00:00.000Z,67.26
2022-08-14T04:15:00.000Z,67.17
2022-08-14T04:30:00.000Z,67.17
2022-08-14T04:45:00.000Z,66.46
2022-08-14T05:00:00.000Z,65.71
2022-08-14T05:15:00.000Z,64.23
2022-08-14T05:30:00.000Z,63.37
2022-08-14T05:45:00.000Z,61.94
2022-08-14T06:00:00.000Z,60.91
2022-08-14T06:15:00.000Z,59.2
2022-08-14T06:30:00.000Z,55.96
2022-08-14T06:45:00.000Z,53.21
2022-08-14T07:00:00.000Z,45.35
2022-08-14T07:15:00.000Z,38.41
2022-08-14T07:30:00.000Z,34.67
2022-08-14T07:45:00.000Z,33.01
2022-08-14T08:00:00.000Z,31.84
2022-08-14T08:15:00.000Z,32.19
2022-08-14T08:30:00.000Z,31.34
2022-08-14T08:45:00.000Z,31.47
2022-08-14T09:00:00.000Z,30.89
2022-08-14T09:15:00.000Z,31
2022-08-14T09:30:00.000Z,29.71
2022-08-14T09:45:00.000Z,30.07
2022-08-14T10:00:00.000Z,29.8
2022-08-14T10:15:00.000Z,29.6
2022-08-14T10:30:00.000Z,30.61
2022-08-14T10:45:00.000Z,31.47
2022-08-14T11:00:00.000Z,31.68
2022-08-14T11:15:00.000Z,32.56
2022-08-14T11:30:00.000Z,33.88
2022-08-14T11:45:00.000Z,33.94
2022-08-14T12:00:00.000Z,34.2
2022-08-14T12:15:00.000Z,35.51
2022-08-14T12:30:00.000Z,35.13
2022-08-14T12:45:00.000Z,35.15
2022-08-14T13:00:00.000Z,33.89
2022-08-14T13:15:00.000Z,34.41
2022-08-14T13:30:00.000Z,35.6
2022-08-14T13:45:00.000Z,35.66
2022-08-14T14:00:00.000Z,35.2
2022-08-14T14:15:00.000Z,35.2
2022-08-14T14:30:00.000Z,34.85
2022-08-14T14:45:00.000Z,34.94
2022-08-14T15:00:00.000Z,35.79
2022-08-14T15:15:00.000Z,36.67
2022-08-14T15:30:00.000Z,37.62
2022-08-14T15:45:00.000Z,39.12
2022-08-14T16:00:00.000Z,41.31
2022-08-14T16:15:00.000Z,42.51
2022-08-14T16:30:00.000Z,43.92
2022-08-14T16:45:00.000Z,44.7
2022-08-14T17:00:00.000Z,45.4
2022-08-14T17:15:00.000Z,46.79
2022-08-14T17:30:00.000Z,47.59
2022-08-14T17:45:00.000Z,48.53
2022-08-14T18:00:00.000Z,49.95
2022-08-14T18:15:00.000Z,52.57
2022-08-14T18:30:00.000Z,54.97
2022-08-14T18:45:00.000Z,57.08
2022-08-14T19:00:00.000Z,58.9
2022-08-14T19:15:00.000Z,60.11
2022-08-14T19:30:00.000Z,60.91
2022-08-14T19:45:00.000Z,61.15
2022-08-14T20:00:00.000Z,62.05
2022-08-14T20:15:00.000Z,63.05
2022-08-14T20:30:00.000Z,63.85
2022-08-14T20:45:00.000Z,64.11
2022-08-14T21:00:00.000Z,64.9
2022-08-14T21:15:00.000Z,64.42
2022-08-14T21:30:00.000Z,66.24
2022-08-14T21:45:00.000Z,67.45
2022-08-14T22:00:00.000Z,67.38
2022-08-14T22:15:00.000Z,67.14
2022-08-14T22:30:00.000Z,68.84
2022-08-14T22:45:00.000Z,68.9
2022-08-14T23:00:00.000Z,70.08
2022-08-14T23:15:00.000Z,68.17
2022-08-14T23:30:00.000Z,67.43
2022-08-14T23:45:00.000Z,66.85
